Time;durP1;ratioP1;P1;durP2;ratioP2;P2;SDS_P1;SDS_P2;PMS_P1;PMS_P2;Temp;Humidity;BMP_temperature;BMP_pressure;BME280_temperature;BME280_humidity;BME280_pressure;Samples;Min_cycle;Max_cycle;Signal;HPM_P1;HPM_P2
2023/04/14 00:02:22;;;;;;;7.78;3.10;;;5.50;99.90;;;;;;4920542;28;20055;-55
2023/04/14 00:04:52;;;;;;;11.90;3.72;;;5.50;99.90;;;;;;4924599;28;20063;-54
2023/04/14 00:07:18;;;;;;;12.98;3.08;;;5.50;99.90;;;;;;4925189;29;20051;-53
2023/04/14 00:09:43;;;;;;;14.05;3.92;;;5.50;99.90;;;;;;4924303;28;20046;-52
2023/04/14 00:12:09;;;;;;;11.55;3.25;;;5.50;99.90;;;;;;4924597;29;20134;-52
2023/04/14 00:14:35;;;;;;;14.63;3.22;;;5.50;99.90;;;;;;4922903;29;20075;-53
2023/04/14 00:17:01;;;;;;;13.93;2.90;;;5.50;99.90;;;;;;4906930;29;20086;-52
2023/04/14 00:19:26;;;;;;;10.55;3.30;;;5.40;99.90;;;;;;4921523;29;20055;-52
2023/04/14 00:21:52;;;;;;;10.90;3.20;;;5.40;99.90;;;;;;4925055;29;20067;-53
2023/04/14 00:24:18;;;;;;;9.32;2.65;;;5.40;99.90;;;;;;4926516;29;20055;-55
2023/04/14 00:26:43;;;;;;;15.48;2.80;;;5.40;99.90;;;;;;4922047;28;20070;-53
2023/04/14 00:29:09;;;;;;;9.23;3.13;;;5.40;99.90;;;;;;4921854;29;20250;-53
2023/04/14 00:31:35;;;;;;;12.65;3.15;;;5.40;99.90;;;;;;4922729;29;21060;-52
2023/04/14 00:34:00;;;;;;;14.48;3.67;;;5.40;99.90;;;;;;4920464;28;20043;-54
2023/04/14 00:36:26;;;;;;;12.30;3.42;;;5.40;99.90;;;;;;4923173;28;20447;-51
2023/04/14 00:38:52;;;;;;;10.77;2.70;;;5.40;99.90;;;;;;4919460;29;20039;-52
2023/04/14 00:41:18;;;;;;;11.85;3.30;;;5.40;99.90;;;;;;4921528;28;20402;-56
2023/04/14 00:43:43;;;;;;;10.98;3.80;;;5.40;99.90;;;;;;4923117;28;20063;-55
2023/04/14 00:46:09;;;;;;;11.82;3.45;;;5.30;99.90;;;;;;4920251;28;20130;-52
2023/04/14 00:48:35;;;;;;;10.35;3.08;;;5.30;99.90;;;;;;4883637;29;1201121;-52
2023/04/14 00:51:02;;;;;;;9.57;2.92;;;5.30;99.90;;;;;;4918232;29;20063;-52
2023/04/14 00:53:28;;;;;;;8.73;2.90;;;5.30;99.90;;;;;;4917903;29;20102;-52
2023/04/14 00:55:54;;;;;;;8.32;3.35;;;5.30;99.90;;;;;;4915298;28;20946;-52
2023/04/14 00:58:20;;;;;;;12.20;3.40;;;5.30;99.90;;;;;;4920780;29;20050;-54
2023/04/14 01:00:52;;;;;;;9.02;2.80;;;5.20;99.90;;;;;;4922760;29;20051;-52
2023/04/14 01:03:18;;;;;;;9.65;3.08;;;5.20;99.90;;;;;;4911753;28;20055;-53
2023/04/14 01:05:44;;;;;;;8.38;3.00;;;5.20;99.90;;;;;;4921162;29;20126;-55
2023/04/14 01:08:10;;;;;;;10.95;3.53;;;5.20;99.90;;;;;;4923838;28;20063;-56
2023/04/14 01:10:45;;;;;;;7.47;3.50;;;5.10;99.90;;;;;;4922724;29;20506;-56
2023/04/14 01:13:32;;;;;;;12.45;3.03;;;5.10;99.90;;;;;;4919206;29;20570;-53
2023/04/14 01:16:02;;;;;;;11.95;3.58;;;5.00;99.90;;;;;;4925220;28;20044;-53
2023/04/14 01:18:46;;;;;;;12.07;3.33;;;5.00;99.90;;;;;;4919733;29;20142;-52
2023/04/14 01:21:25;;;;;;;9.80;2.95;;;5.00;99.90;;;;;;4920436;28;20056;-54
2023/04/14 01:24:30;;;;;;;8.18;3.25;;;5.00;99.90;;;;;;4922595;28;20078;-51
2023/04/14 01:27:39;;;;;;;8.43;3.20;;;4.90;99.90;;;;;;4909448;28;20090;-52
2023/04/14 01:30:27;;;;;;;8.18;2.72;;;4.90;99.90;;;;;;4915002;28;20055;-54
2023/04/14 01:32:57;;;;;;;6.90;2.50;;;4.90;99.90;;;;;;4922536;28;20054;-55
2023/04/14 01:35:41;;;;;;;11.60;2.67;;;4.80;99.90;;;;;;4924802;29;20156;-52
2023/04/14 01:41:53;;;;;;;10.20;3.00;;;4.90;99.90;;;;;;4922340;29;20046;-52
2023/04/14 01:44:21;;;;;;;9.80;3.53;;;4.90;99.90;;;;;;4917073;29;20044;-53
2023/04/14 01:46:52;;;;;;;8.55;2.95;;;4.90;99.90;;;;;;4924781;28;20554;-54
2023/04/14 01:49:20;;;;;;;11.75;3.42;;;4.90;99.90;;;;;;4923801;28;20051;-52
2023/04/14 01:51:47;;;;;;;8.18;2.42;;;4.90;99.90;;;;;;4927393;28;20055;-53
2023/04/14 01:54:16;;;;;;;6.97;2.55;;;5.00;99.90;;;;;;4923619;29;20109;-53
2023/04/14 01:56:42;;;;;;;7.07;2.75;;;5.00;99.90;;;;;;4923361;29;20092;-55
2023/04/14 01:59:10;;;;;;;9.00;2.83;;;4.90;99.90;;;;;;4925034;29;20094;-52
2023/04/14 02:01:38;;;;;;;9.55;3.05;;;4.90;99.90;;;;;;4926193;28;20043;-55
2023/04/14 02:04:05;;;;;;;9.02;3.17;;;4.90;99.90;;;;;;4915787;28;20047;-54
2023/04/14 02:06:33;;;;;;;13.27;3.63;;;4.90;99.90;;;;;;4927545;28;20043;-55
2023/04/14 02:09:01;;;;;;;11.48;3.38;;;4.90;99.90;;;;;;4923657;28;20351;-54
2023/04/14 02:11:29;;;;;;;12.43;3.72;;;4.90;99.90;;;;;;4917643;28;20187;-55
2023/04/14 02:13:56;;;;;;;14.30;3.20;;;4.90;99.90;;;;;;4925899;28;20054;-51
2023/04/14 02:16:26;;;;;;;10.20;2.90;;;4.90;99.90;;;;;;4922959;28;21615;-55
2023/04/14 02:18:52;;;;;;;7.95;2.60;;;4.80;99.90;;;;;;4928549;28;20074;-54
2023/04/14 02:21:21;;;;;;;11.70;2.90;;;4.80;99.90;;;;;;4929849;29;20486;-55
2023/04/14 02:23:47;;;;;;;9.15;3.00;;;4.90;99.90;;;;;;4919321;29;20471;-54
2023/04/14 02:26:15;;;;;;;10.48;3.08;;;4.80;99.90;;;;;;4923919;28;20054;-54
2023/04/14 02:28:48;;;;;;;10.23;3.03;;;4.80;99.90;;;;;;4923553;28;20200;-52
2023/04/14 02:31:19;;;;;;;9.77;2.97;;;4.90;99.90;;;;;;4922478;28;22049;-53
2023/04/14 02:33:46;;;;;;;7.18;2.85;;;4.90;99.90;;;;;;4921069;28;20042;-51
2023/04/14 02:36:16;;;;;;;9.00;2.40;;;4.90;99.90;;;;;;4926329;28;20556;-54
2023/04/14 02:38:48;;;;;;;10.00;2.42;;;4.80;99.90;;;;;;4926138;29;20059;-54
2023/04/14 02:41:23;;;;;;;12.80;2.80;;;4.80;99.90;;;;;;4908577;29;20130;-55
2023/04/14 02:44:17;;;;;;;8.98;2.83;;;4.90;99.90;;;;;;4919610;28;20070;-54
2023/04/14 02:47:02;;;;;;;9.45;2.30;;;4.90;99.90;;;;;;4919783;29;20073;-55
2023/04/14 02:49:31;;;;;;;8.40;2.45;;;4.80;99.90;;;;;;4921410;29;20051;-54
2023/04/14 02:51:57;;;;;;;6.93;2.83;;;4.90;99.90;;;;;;4918962;29;20070;-53
2023/04/14 02:54:24;;;;;;;9.90;2.50;;;4.90;99.90;;;;;;4921083;29;20641;-56
2023/04/14 02:56:50;;;;;;;13.02;2.63;;;4.90;99.90;;;;;;4921387;28;20164;-54
2023/04/14 02:59:18;;;;;;;10.50;2.80;;;4.90;99.90;;;;;;4921151;28;20051;-54
2023/04/14 03:01:45;;;;;;;13.10;2.78;;;4.90;99.90;;;;;;4923316;28;20054;-53
2023/04/14 03:04:14;;;;;;;9.00;2.67;;;4.90;99.90;;;;;;4922054;28;20413;-52
2023/04/14 03:06:40;;;;;;;6.40;2.35;;;4.90;99.90;;;;;;4924145;28;20047;-51
2023/04/14 03:09:06;;;;;;;8.82;2.70;;;4.90;99.90;;;;;;4923416;29;20053;-52
2023/04/14 03:11:34;;;;;;;7.35;2.72;;;4.90;99.90;;;;;;4924851;28;20039;-52
2023/04/14 03:14:01;;;;;;;11.30;2.72;;;4.80;99.90;;;;;;4904414;28;20171;-53
2023/04/14 03:16:28;;;;;;;11.43;2.75;;;4.80;99.90;;;;;;4922271;29;20499;-52
2023/04/14 03:18:55;;;;;;;11.27;2.47;;;4.80;99.90;;;;;;4923999;29;20534;-54
2023/04/14 03:21:22;;;;;;;11.38;2.55;;;4.80;99.90;;;;;;4924214;29;20450;-52
2023/04/14 03:23:51;;;;;;;8.82;2.83;;;4.80;99.90;;;;;;4922807;28;20047;-54
2023/04/14 03:26:20;;;;;;;14.63;3.00;;;4.70;99.90;;;;;;4924234;28;20133;-52
2023/04/14 03:28:47;;;;;;;11.20;2.70;;;4.80;99.90;;;;;;4921213;28;20774;-52
2023/04/14 03:31:17;;;;;;;9.32;2.30;;;4.70;99.90;;;;;;4921980;29;20086;-53
2023/04/14 03:33:45;;;;;;;6.85;2.78;;;4.70;99.90;;;;;;4917728;29;20054;-52
2023/04/14 03:36:13;;;;;;;8.93;2.60;;;4.70;99.90;;;;;;4922849;28;20054;-52
2023/04/14 03:38:41;;;;;;;10.98;2.90;;;4.70;99.90;;;;;;4923069;29;20126;-51
2023/04/14 03:41:08;;;;;;;8.10;3.08;;;4.60;99.90;;;;;;4917059;28;20054;-51
2023/04/14 03:43:35;;;;;;;7.28;2.80;;;4.60;99.90;;;;;;4921471;28;20043;-53
2023/04/14 03:46:04;;;;;;;8.80;2.90;;;4.50;99.90;;;;;;4919925;28;20047;-51
2023/04/14 03:48:35;;;;;;;7.45;2.80;;;4.50;99.90;;;;;;4917298;29;20059;-52
2023/04/14 03:51:04;;;;;;;11.77;2.88;;;4.50;99.90;;;;;;4918418;28;20062;-52
2023/04/14 03:53:33;;;;;;;11.15;2.65;;;4.40;99.90;;;;;;4922915;28;20051;-52
2023/04/14 03:55:59;;;;;;;12.15;3.03;;;4.40;99.90;;;;;;4923060;29;20438;-51
2023/04/14 03:58:27;;;;;;;9.88;2.80;;;4.50;99.90;;;;;;4922178;29;20043;-51
2023/04/14 04:00:54;;;;;;;9.57;2.78;;;4.50;99.90;;;;;;4922077;29;20048;-55
2023/04/14 04:03:21;;;;;;;8.02;2.50;;;4.50;99.90;;;;;;4916807;28;20909;-56
2023/04/14 04:05:47;;;;;;;9.30;2.95;;;4.60;99.90;;;;;;4924928;28;20543;-54
2023/04/14 04:08:14;;;;;;;15.05;2.92;;;4.50;99.90;;;;;;4922483;29;20047;-53
2023/04/14 04:10:42;;;;;;;9.35;3.08;;;4.50;99.90;;;;;;4919394;28;20532;-52
2023/04/14 04:13:14;;;;;;;10.23;2.50;;;4.50;99.90;;;;;;4925756;28;20043;-52
2023/04/14 04:15:41;;;;;;;7.85;2.88;;;4.50;99.90;;;;;;4913227;28;20134;-55
2023/04/14 04:18:09;;;;;;;12.82;3.10;;;4.50;99.90;;;;;;4922429;28;20134;-53
2023/04/14 04:20:37;;;;;;;11.88;3.28;;;4.50;99.90;;;;;;4920779;28;20083;-54
2023/04/14 04:23:06;;;;;;;7.57;2.70;;;4.50;99.90;;;;;;4913623;28;20510;-52
2023/04/14 04:25:35;;;;;;;8.98;3.00;;;4.50;99.90;;;;;;4923277;28;20043;-55
2023/04/14 04:28:01;;;;;;;11.73;3.55;;;4.40;99.90;;;;;;4926077;29;20133;-52
2023/04/14 04:30:29;;;;;;;9.15;2.60;;;4.50;99.90;;;;;;4920534;28;20059;-51
2023/04/14 04:32:55;;;;;;;10.75;2.70;;;4.50;99.90;;;;;;4925053;29;20043;-53
2023/04/14 04:35:23;;;;;;;10.80;2.97;;;4.50;99.90;;;;;;4921262;29;20055;-56
2023/04/14 04:37:49;;;;;;;10.25;3.25;;;4.50;99.90;;;;;;4916776;28;20637;-52
2023/04/14 04:40:15;;;;;;;7.75;2.88;;;4.50;99.90;;;;;;4924012;29;20577;-55
2023/04/14 04:42:42;;;;;;;12.65;2.70;;;4.50;99.90;;;;;;4919395;28;20054;-52
2023/04/14 04:45:08;;;;;;;8.88;2.80;;;4.60;99.90;;;;;;4917217;28;20138;-55
2023/04/14 04:47:34;;;;;;;8.90;2.55;;;4.50;99.90;;;;;;4920365;28;20806;-56
2023/04/14 04:50:00;;;;;;;10.45;2.78;;;4.60;99.90;;;;;;4918206;29;20513;-56
2023/04/14 04:52:26;;;;;;;9.57;3.08;;;4.50;99.90;;;;;;4917235;28;20549;-52
2023/04/14 04:54:51;;;;;;;8.38;2.67;;;4.50;99.90;;;;;;4917762;28;20043;-53
2023/04/14 04:57:18;;;;;;;8.68;2.80;;;4.50;99.90;;;;;;4921649;29;20091;-54
2023/04/14 04:59:43;;;;;;;8.85;2.97;;;4.50;99.90;;;;;;4925038;29;21877;-51
2023/04/14 05:02:09;;;;;;;9.80;3.17;;;4.50;99.90;;;;;;4919212;29;20078;-53
2023/04/14 05:04:35;;;;;;;12.88;3.03;;;4.50;99.90;;;;;;4915738;28;20071;-55
2023/04/14 05:07:02;;;;;;;9.07;3.10;;;4.70;99.90;;;;;;4920701;28;21359;-51
2023/04/14 05:09:28;;;;;;;10.85;2.90;;;4.60;99.90;;;;;;4920675;28;20526;-51
2023/04/14 05:11:54;;;;;;;10.77;3.10;;;4.60;99.90;;;;;;4921841;29;20058;-52
2023/04/14 05:14:20;;;;;;;9.88;3.20;;;4.60;99.90;;;;;;4922308;28;20062;-51
2023/04/14 05:16:46;;;;;;;11.88;2.88;;;4.70;99.90;;;;;;4915745;29;20051;-55
2023/04/14 05:19:12;;;;;;;8.13;2.33;;;4.70;99.90;;;;;;4917439;28;20111;-52
2023/04/14 05:21:38;;;;;;;9.60;2.60;;;4.70;99.90;;;;;;4916315;29;20407;-52
2023/04/14 05:24:06;;;;;;;8.27;2.85;;;4.70;99.90;;;;;;4904573;28;20048;-52
2023/04/14 05:26:32;;;;;;;10.05;2.80;;;4.70;99.90;;;;;;4910831;28;20086;-52
2023/04/14 05:28:59;;;;;;;12.52;2.92;;;4.80;99.90;;;;;;4916223;28;20040;-54
2023/04/14 05:31:24;;;;;;;5.82;2.33;;;4.70;99.90;;;;;;4919283;29;20078;-55
2023/04/14 05:33:50;;;;;;;11.75;3.17;;;4.80;99.90;;;;;;4911122;28;20049;-56
2023/04/14 05:36:16;;;;;;;11.60;2.60;;;4.90;99.90;;;;;;4923617;28;20436;-55
2023/04/14 05:38:41;;;;;;;7.07;2.63;;;4.80;99.90;;;;;;4929729;28;20051;-52
2023/04/14 05:41:07;;;;;;;10.80;2.80;;;4.90;99.90;;;;;;4926500;28;20051;-52
2023/04/14 05:43:33;;;;;;;12.50;3.15;;;4.90;99.90;;;;;;4926832;29;20055;-53
2023/04/14 05:46:00;;;;;;;10.80;2.90;;;4.90;99.90;;;;;;4925455;28;20048;-51
2023/04/14 05:48:28;;;;;;;9.93;2.97;;;5.00;99.90;;;;;;4924198;29;20193;-53
2023/04/14 05:50:54;;;;;;;12.57;3.05;;;5.00;99.90;;;;;;4929001;29;20070;-53
2023/04/14 05:53:20;;;;;;;9.38;3.00;;;5.10;99.90;;;;;;4926538;28;20035;-52
2023/04/14 05:55:47;;;;;;;13.45;3.30;;;5.10;99.90;;;;;;4926129;29;20044;-51
2023/04/14 05:58:13;;;;;;;10.05;2.83;;;5.20;99.90;;;;;;4927753;28;20051;-52
2023/04/14 06:00:39;;;;;;;10.98;3.20;;;5.20;99.90;;;;;;4928805;28;20118;-54
2023/04/14 06:03:05;;;;;;;12.98;3.08;;;5.30;99.90;;;;;;4927339;28;20043;-51
2023/04/14 06:05:32;;;;;;;14.68;3.42;;;5.30;99.90;;;;;;4923075;28;20178;-52
2023/04/14 06:07:58;;;;;;;16.88;3.22;;;5.40;99.90;;;;;;4921319;29;20043;-54
2023/04/14 06:10:24;;;;;;;10.63;3.35;;;5.40;99.90;;;;;;4927605;29;20058;-53
2023/04/14 06:12:49;;;;;;;10.57;3.20;;;5.50;99.90;;;;;;4919253;28;20055;-54
2023/04/14 06:15:15;;;;;;;9.02;2.65;;;5.50;99.90;;;;;;4917670;29;20070;-57
2023/04/14 06:17:41;;;;;;;12.02;3.35;;;5.60;99.90;;;;;;4922117;29;20050;-52
2023/04/14 06:20:07;;;;;;;9.25;2.78;;;5.60;99.90;;;;;;4929794;28;20580;-54
2023/04/14 06:22:33;;;;;;;10.85;2.97;;;5.80;99.90;;;;;;4929511;28;20051;-54
2023/04/14 06:24:59;;;;;;;10.38;2.60;;;5.80;99.90;;;;;;4928572;29;20043;-56
2023/04/14 06:27:25;;;;;;;12.98;3.03;;;5.90;99.90;;;;;;4927718;28;20043;-53
2023/04/14 06:29:51;;;;;;;13.02;2.90;;;5.90;99.90;;;;;;4929482;28;20122;-55
2023/04/14 06:32:18;;;;;;;11.27;3.22;;;6.00;99.90;;;;;;4927175;29;20443;-53
2023/04/14 06:34:44;;;;;;;10.68;2.63;;;6.10;99.90;;;;;;4924419;28;20048;-54
2023/04/14 06:37:10;;;;;;;16.42;3.05;;;6.20;99.90;;;;;;4925893;28;20196;-54
2023/04/14 06:39:36;;;;;;;12.38;2.83;;;6.20;99.90;;;;;;4927756;28;20051;-52
2023/04/14 06:42:01;;;;;;;10.70;3.35;;;6.30;99.90;;;;;;4928575;28;20051;-56
2023/04/14 06:44:27;;;;;;;10.82;2.88;;;6.40;99.90;;;;;;4923153;28;20142;-56
2023/04/14 06:46:53;;;;;;;9.15;3.25;;;6.40;99.90;;;;;;4928084;29;20399;-54
2023/04/14 06:49:20;;;;;;;9.60;2.83;;;6.50;99.90;;;;;;4929278;28;20052;-56
2023/04/14 06:51:45;;;;;;;10.35;2.83;;;6.50;99.90;;;;;;4924454;28;20044;-56
2023/04/14 06:54:11;;;;;;;11.13;2.78;;;6.60;99.90;;;;;;4932164;28;20043;-55
2023/04/14 06:56:37;;;;;;;13.15;2.63;;;6.70;99.90;;;;;;4927245;28;20109;-56
2023/04/14 06:59:02;;;;;;;10.48;2.67;;;6.80;99.90;;;;;;4926635;28;20066;-53
2023/04/14 07:01:28;;;;;;;11.35;2.78;;;6.90;99.90;;;;;;4926899;29;20051;-55
2023/04/14 07:03:54;;;;;;;9.25;2.78;;;7.00;99.90;;;;;;4926841;28;20063;-55
2023/04/14 07:06:20;;;;;;;5.88;2.45;;;7.10;99.90;;;;;;4926923;29;20055;-54
2023/04/14 07:08:47;;;;;;;13.50;2.67;;;7.20;99.90;;;;;;4922223;28;20078;-56
2023/04/14 07:11:12;;;;;;;9.13;2.40;;;7.20;99.90;;;;;;4920803;29;20054;-55
2023/04/14 07:13:39;;;;;;;8.25;2.33;;;7.30;99.90;;;;;;4928079;29;20035;-55
2023/04/14 07:16:06;;;;;;;9.60;2.15;;;7.40;99.90;;;;;;4928125;28;20047;-54
2023/04/14 07:18:32;;;;;;;10.05;2.47;;;7.50;99.90;;;;;;4926544;29;20474;-53
2023/04/14 07:21:00;;;;;;;10.40;2.70;;;7.50;99.90;;;;;;4928264;29;20049;-53
2023/04/14 07:23:27;;;;;;;11.45;2.20;;;7.60;99.90;;;;;;4928724;28;20380;-53
2023/04/14 07:25:54;;;;;;;11.95;2.22;;;7.70;99.90;;;;;;4930977;28;20557;-53
2023/04/14 07:28:21;;;;;;;11.68;2.10;;;7.80;99.90;;;;;;4934722;29;20047;-56
2023/04/14 07:30:48;;;;;;;8.15;2.00;;;8.00;99.90;;;;;;4930453;28;20053;-56
2023/04/14 07:33:17;;;;;;;12.00;2.15;;;8.10;99.90;;;;;;4932375;29;20118;-53
2023/04/14 07:35:52;;;;;;;8.27;2.30;;;8.30;99.90;;;;;;4930936;29;20035;-53
2023/04/14 07:38:19;;;;;;;8.20;2.28;;;8.30;99.90;;;;;;4930842;29;20027;-57
2023/04/14 07:40:44;;;;;;;10.25;2.10;;;8.50;99.90;;;;;;4930150;28;20055;-54
2023/04/14 07:43:10;;;;;;;8.63;2.15;;;8.50;99.90;;;;;;4930770;29;20209;-53
2023/04/14 07:45:37;;;;;;;11.25;2.58;;;8.70;99.90;;;;;;4931389;28;20074;-55
2023/04/14 07:48:03;;;;;;;14.80;2.25;;;8.80;99.90;;;;;;4929126;28;20099;-56
2023/04/14 07:50:29;;;;;;;10.02;2.35;;;8.90;99.90;;;;;;4930848;29;20561;-56
2023/04/14 07:52:55;;;;;;;10.55;2.63;;;9.00;99.90;;;;;;4930750;29;20039;-54
2023/04/14 07:55:20;;;;;;;10.90;1.90;;;9.10;99.90;;;;;;4932742;28;20673;-53
2023/04/14 07:57:46;;;;;;;10.65;2.53;;;9.10;99.90;;;;;;4931029;28;20458;-54
2023/04/14 08:00:12;;;;;;;13.93;3.17;;;9.20;99.90;;;;;;4932839;29;20055;-57
2023/04/14 08:02:38;;;;;;;12.15;2.50;;;9.30;99.90;;;;;;4930555;29;20043;-54
2023/04/14 08:05:04;;;;;;;8.55;2.40;;;9.40;99.90;;;;;;4932123;28;20067;-54
2023/04/14 08:07:30;;;;;;;9.15;2.28;;;9.50;99.90;;;;;;4931272;29;20405;-55
2023/04/14 08:09:56;;;;;;;10.45;2.42;;;9.60;99.90;;;;;;4930557;28;20044;-54
2023/04/14 08:12:25;;;;;;;10.30;2.35;;;9.70;99.90;;;;;;4932068;28;20133;-56
2023/04/14 08:14:55;;;;;;;9.27;2.20;;;9.80;99.90;;;;;;4931701;29;20078;-56
2023/04/14 08:17:22;;;;;;;9.68;2.03;;;10.00;99.90;;;;;;4930138;28;20323;-56
2023/04/14 08:19:48;;;;;;;10.32;2.20;;;10.10;99.90;;;;;;4931603;28;20127;-56
2023/04/14 08:22:14;;;;;;;11.10;2.55;;;10.20;99.90;;;;;;4930038;28;20090;-57
2023/04/14 08:24:40;;;;;;;13.93;2.30;;;10.30;99.90;;;;;;4930782;28;20058;-52
2023/04/14 08:27:05;;;;;;;10.02;2.38;;;10.40;99.90;;;;;;4928216;29;20070;-55
2023/04/14 08:29:31;;;;;;;13.25;2.80;;;10.60;99.90;;;;;;4930761;28;20541;-55
2023/04/14 08:31:57;;;;;;;13.05;2.10;;;10.70;99.90;;;;;;4932040;28;20043;-56
2023/04/14 08:34:22;;;;;;;12.60;2.53;;;10.80;99.90;;;;;;4928041;28;20150;-56
2023/04/14 08:36:48;;;;;;;9.25;1.95;;;10.90;99.90;;;;;;4930516;29;20178;-57
2023/04/14 08:39:14;;;;;;;6.03;1.75;;;11.00;99.90;;;;;;4928680;28;20545;-54
2023/04/14 08:41:40;;;;;;;13.80;2.35;;;11.10;99.90;;;;;;4921773;29;20066;-57
2023/04/14 08:44:07;;;;;;;10.35;3.00;;;11.20;99.90;;;;;;4929406;28;20043;-57
2023/04/14 08:46:34;;;;;;;10.15;2.03;;;11.20;99.90;;;;;;4920831;28;20047;-56
2023/04/14 08:49:05;;;;;;;11.50;1.98;;;11.30;99.90;;;;;;4912623;28;20059;-55
2023/04/14 08:51:34;;;;;;;11.80;2.60;;;11.40;99.90;;;;;;4904288;28;20510;-56
2023/04/14 08:54:03;;;;;;;6.47;2.10;;;11.60;99.90;;;;;;4924472;29;20558;-56
2023/04/14 08:56:36;;;;;;;5.80;2.00;;;11.70;99.90;;;;;;4928659;29;20043;-57
2023/04/14 08:59:06;;;;;;;7.72;2.03;;;11.80;99.90;;;;;;4927816;28;20107;-55
2023/04/14 09:01:36;;;;;;;10.57;2.30;;;11.90;99.90;;;;;;4928315;29;20597;-54
2023/04/14 09:04:03;;;;;;;8.57;2.08;;;12.00;99.90;;;;;;4924564;28;20194;-55
2023/04/14 09:06:33;;;;;;;9.05;2.58;;;12.10;99.90;;;;;;4921728;29;20402;-57
2023/04/14 09:09:02;;;;;;;8.25;2.10;;;12.20;99.90;;;;;;4924645;28;20055;-54
2023/04/14 09:11:29;;;;;;;13.55;2.30;;;12.30;99.90;;;;;;4928670;28;20059;-58
2023/04/14 09:13:57;;;;;;;9.18;2.03;;;12.40;99.90;;;;;;4924149;29;20094;-57
2023/04/14 09:16:25;;;;;;;8.73;2.03;;;12.40;99.90;;;;;;4923096;28;20055;-57
2023/04/14 09:18:52;;;;;;;9.75;2.50;;;12.50;99.90;;;;;;4927745;29;21279;-57
2023/04/14 09:21:18;;;;;;;14.57;2.67;;;12.50;99.90;;;;;;4923973;28;20455;-56
2023/04/14 09:23:45;;;;;;;12.45;2.40;;;12.60;99.90;;;;;;4925790;28;20062;-57
2023/04/14 09:26:12;;;;;;;10.18;2.50;;;12.60;99.90;;;;;;4923410;29;20090;-56
2023/04/14 09:28:39;;;;;;;12.57;3.22;;;12.70;99.90;;;;;;4927142;28;20049;-56
2023/04/14 09:31:04;;;;;;;12.85;2.13;;;12.80;99.90;;;;;;4917862;29;20047;-56
2023/04/14 09:33:31;;;;;;;12.80;2.40;;;12.90;99.90;;;;;;4927058;28;20106;-58
2023/04/14 09:35:57;;;;;;;13.15;2.85;;;12.90;99.90;;;;;;4927458;28;20175;-57
2023/04/14 09:38:36;;;;;;;13.70;2.53;;;13.10;99.90;;;;;;4928558;28;20054;-54
2023/04/14 09:41:04;;;;;;;8.70;2.00;;;13.30;99.90;;;;;;4926053;28;20135;-57
2023/04/14 09:43:29;;;;;;;7.95;2.05;;;13.40;99.80;;;;;;4924801;28;20082;-56
2023/04/14 09:45:57;;;;;;;9.77;2.45;;;13.50;99.20;;;;;;4927766;29;20130;-57
2023/04/14 09:48:23;;;;;;;9.13;2.53;;;13.60;98.70;;;;;;4923962;28;20064;-56
2023/04/14 09:51:08;;;;;;;9.35;2.53;;;13.60;98.70;;;;;;4927055;28;20091;-57
2023/04/14 09:53:41;;;;;;;8.00;2.20;;;13.80;98.60;;;;;;4925198;28;20039;-58
2023/04/14 09:56:10;;;;;;;8.25;2.60;;;13.90;98.20;;;;;;4926270;29;20050;-57
2023/04/14 09:58:41;;;;;;;11.07;3.45;;;14.00;98.40;;;;;;4923263;29;20556;-58
2023/04/14 10:01:11;;;;;;;14.02;2.65;;;14.10;98.10;;;;;;4927272;29;20133;-58
2023/04/14 10:03:45;;;;;;;10.50;3.22;;;14.10;97.60;;;;;;4926894;29;20062;-54
2023/04/14 10:06:19;;;;;;;9.38;2.90;;;14.00;97.50;;;;;;4926994;28;20387;-57
2023/04/14 10:08:50;;;;;;;7.95;2.95;;;14.10;97.80;;;;;;4927052;29;21504;-57
2023/04/14 10:11:26;;;;;;;10.43;2.60;;;14.20;97.70;;;;;;4924723;28;20152;-58
2023/04/14 10:14:00;;;;;;;15.10;2.95;;;14.30;97.40;;;;;;4924065;28;20284;-56
2023/04/14 10:16:26;;;;;;;13.50;3.05;;;14.40;97.40;;;;;;4926450;29;20043;-57
2023/04/14 10:18:53;;;;;;;7.63;2.70;;;14.50;97.40;;;;;;4927041;28;20647;-55
2023/04/14 10:21:23;;;;;;;8.30;2.35;;;14.60;97.40;;;;;;4925858;28;20469;-54
2023/04/14 10:23:50;;;;;;;7.32;2.50;;;14.70;97.00;;;;;;4925817;28;20542;-56
2023/04/14 10:26:17;;;;;;;11.77;2.80;;;14.90;97.10;;;;;;4913289;29;20988;-55
2023/04/14 10:28:49;;;;;;;8.80;2.83;;;15.10;96.70;;;;;;4942745;28;20047;-58
2023/04/14 10:31:25;;;;;;;9.00;2.45;;;15.20;96.60;;;;;;4924173;29;20177;-57
2023/04/14 10:33:51;;;;;;;10.07;2.88;;;15.40;96.30;;;;;;4923648;29;20100;-58
2023/04/14 10:36:27;;;;;;;12.52;3.13;;;15.50;96.80;;;;;;4925108;29;20053;-56
2023/04/14 10:39:01;;;;;;;10.38;3.15;;;15.70;96.30;;;;;;4924342;28;20111;-58
2023/04/14 10:41:36;;;;;;;12.00;2.92;;;15.90;95.40;;;;;;4926851;28;20047;-57
2023/04/14 10:44:02;;;;;;;11.60;3.13;;;15.80;94.90;;;;;;4923286;28;20494;-55
2023/04/14 10:46:45;;;;;;;8.77;2.60;;;15.80;94.80;;;;;;4924369;29;20103;-57
2023/04/14 10:49:12;;;;;;;10.45;2.80;;;15.90;93.70;;;;;;4925066;28;20159;-57
2023/04/14 10:51:37;;;;;;;8.80;2.83;;;16.00;94.40;;;;;;4926403;28;20130;-56
2023/04/14 10:54:15;;;;;;;13.32;2.97;;;16.10;93.60;;;;;;4919120;28;20048;-57
2023/04/14 10:56:41;;;;;;;12.45;2.70;;;16.20;93.60;;;;;;4923179;28;20046;-58
2023/04/14 10:59:09;;;;;;;9.55;2.67;;;16.40;93.50;;;;;;4925218;28;20047;-56
2023/04/14 11:01:36;;;;;;;15.05;2.85;;;16.50;92.40;;;;;;4925302;28;20585;-57
2023/04/14 11:04:18;;;;;;;11.63;2.83;;;16.60;90.90;;;;;;4931291;28;20162;-56
2023/04/14 11:06:47;;;;;;;10.00;2.90;;;16.70;91.20;;;;;;4929716;28;20043;-56
2023/04/14 11:09:23;;;;;;;11.40;2.88;;;16.90;91.20;;;;;;4930515;28;20057;-55
2023/04/14 11:11:48;;;;;;;8.40;2.47;;;17.10;91.30;;;;;;4930811;29;20043;-57
2023/04/14 11:14:15;;;;;;;12.10;2.97;;;17.20;90.30;;;;;;4935012;28;20067;-56
2023/04/14 11:16:43;;;;;;;11.13;2.60;;;17.30;89.10;;;;;;4933255;28;20075;-57
2023/04/14 11:19:15;;;;;;;8.65;2.22;;;17.50;87.70;;;;;;4936360;29;20039;-57
2023/04/14 11:21:52;;;;;;;8.60;2.30;;;17.60;86.70;;;;;;4931519;28;20039;-58
2023/04/14 11:24:22;;;;;;;10.73;2.50;;;17.80;86.00;;;;;;4927322;28;20314;-57
2023/04/14 11:26:51;;;;;;;11.18;2.72;;;17.90;84.40;;;;;;4931207;28;20056;-55
2023/04/14 11:29:16;;;;;;;11.85;2.28;;;18.00;82.50;;;;;;4930774;28;20162;-58
2023/04/14 11:31:43;;;;;;;7.80;2.20;;;18.00;81.30;;;;;;4932051;28;20043;-58
2023/04/14 11:34:08;;;;;;;8.05;2.47;;;18.10;80.70;;;;;;4931045;28;20394;-58
2023/04/14 11:36:38;;;;;;;7.93;2.38;;;18.10;81.40;;;;;;4930404;28;20044;-58
2023/04/14 11:39:05;;;;;;;7.60;2.35;;;18.10;80.50;;;;;;4912802;29;20050;-57
2023/04/14 11:41:31;;;;;;;7.32;2.10;;;18.30;82.90;;;;;;4935196;29;20051;-55
2023/04/14 11:43:57;;;;;;;6.97;2.30;;;18.40;80.40;;;;;;4936574;29;20114;-56
2023/04/14 11:46:24;;;;;;;13.60;2.30;;;18.40;78.50;;;;;;4930466;29;20096;-58
2023/04/14 11:48:56;;;;;;;7.85;2.35;;;18.40;77.10;;;;;;4933894;29;20091;-58
2023/04/14 11:51:32;;;;;;;;;;;18.40;75.90;;;;;;4899303;28;20134;-55
2023/04/14 11:53:59;;;;;;;8.75;3.03;;;18.50;79.30;;;;;;4929495;28;20001;-56
2023/04/14 11:56:26;;;;;;;6.68;2.53;;;18.40;77.30;;;;;;4932817;28;20036;-58
2023/04/14 11:58:59;;;;;;;7.68;2.35;;;18.20;75.70;;;;;;4932883;29;20047;-56
2023/04/14 12:01:25;;;;;;;6.53;2.25;;;17.90;75.30;;;;;;4935478;29;20496;-57
2023/04/14 12:03:52;;;;;;;10.88;2.53;;;18.00;76.30;;;;;;4936034;28;20055;-58
2023/04/14 12:06:18;;;;;;;8.88;2.20;;;18.20;76.10;;;;;;4932208;29;20134;-58
2023/04/14 12:08:49;;;;;;;8.85;2.17;;;18.50;75.00;;;;;;4933459;29;20091;-55
2023/04/14 12:11:16;;;;;;;10.93;2.50;;;18.50;73.70;;;;;;4933527;29;20138;-55
2023/04/14 12:13:43;;;;;;;6.20;2.38;;;18.50;72.10;;;;;;4928625;28;20043;-57
2023/04/14 12:16:10;;;;;;;8.18;2.53;;;18.40;72.60;;;;;;4926749;28;20043;-55
2023/04/14 12:18:35;;;;;;;8.27;2.92;;;18.50;72.20;;;;;;4928639;28;20490;-56
2023/04/14 12:21:03;;;;;;;8.63;2.53;;;18.70;71.30;;;;;;4930788;28;20350;-55
2023/04/14 12:23:34;;;;;;;7.78;2.67;;;18.90;70.50;;;;;;4933165;28;20052;-58
2023/04/14 12:26:00;;;;;;;9.55;2.13;;;18.90;68.40;;;;;;4926462;28;20573;-54
2023/04/14 12:28:27;;;;;;;6.90;2.15;;;18.80;67.50;;;;;;4929668;28;20602;-57
2023/04/14 12:30:59;;;;;;;6.60;2.20;;;18.60;66.60;;;;;;4927423;28;20545;-57
2023/04/14 12:33:27;;;;;;;7.40;2.47;;;18.30;67.30;;;;;;4933418;28;20090;-58
2023/04/14 12:35:59;;;;;;;8.05;2.53;;;18.10;68.30;;;;;;4921856;28;20273;-57
2023/04/14 12:38:29;;;;;;;6.93;2.60;;;17.80;69.20;;;;;;4933624;28;20436;-56
2023/04/14 12:40:55;;;;;;;6.53;2.47;;;17.70;69.30;;;;;;4929180;28;20107;-57
2023/04/14 12:43:35;;;;;;;8.95;2.67;;;17.50;68.70;;;;;;4931122;28;20124;-58
2023/04/14 12:46:03;;;;;;;7.32;2.53;;;17.30;68.70;;;;;;4933289;28;20098;-56
2023/04/14 12:48:43;;;;;;;7.93;2.50;;;17.10;70.00;;;;;;4917692;28;20060;-57
2023/04/14 12:51:14;;;;;;;7.25;2.25;;;17.20;70.40;;;;;;4928993;29;20054;-55
2023/04/14 12:53:41;;;;;;;10.88;2.60;;;17.20;70.40;;;;;;4933452;29;20144;-55
2023/04/14 12:56:16;;;;;;;4.93;1.90;;;17.20;70.30;;;;;;4930467;29;20042;-55
2023/04/14 12:58:45;;;;;;;7.07;2.13;;;17.10;69.00;;;;;;4929972;28;20055;-58